createdAt,value
2022-12-01T00:01:16.579Z,74.68
2022-12-01T00:03:43.737Z,74.21
2022-12-01T00:06:13.412Z,74.82
2022-12-01T00:08:40.114Z,74.75
2022-12-01T00:11:08.876Z,73.63
2022-12-01T00:13:36.020Z,72.80
2022-12-01T00:16:13.715Z,73.73
2022-12-01T00:18:40.725Z,73.90
2022-12-01T00:21:14.021Z,74.06
2022-12-01T00:23:43.717Z,74.71
2022-12-01T00:26:10.353Z,73.85
2022-12-01T00:28:36.911Z,74.64
2022-12-01T00:31:08.095Z,73.95
2022-12-01T00:33:34.751Z,73.37
2022-12-01T00:36:02.275Z,74.06
2022-12-01T00:38:29.419Z,72.99
2022-12-01T00:40:56.042Z,73.32
2022-12-01T00:43:22.799Z,73.40
2022-12-01T00:45:50.014Z,73.85
2022-12-01T00:48:16.832Z,74.02
2022-12-01T00:50:43.879Z,74.26
2022-12-01T00:53:10.737Z,73.46
2022-12-01T00:55:37.358Z,73.51
2022-12-01T00:58:04.524Z,74.11
2022-12-01T01:00:31.306Z,74.24
2022-12-01T01:02:57.908Z,73.21
2022-12-01T01:05:24.549Z,73.44
2022-12-01T01:07:51.299Z,74.32
2022-12-01T01:10:18.031Z,73.48
2022-12-01T01:12:44.637Z,73.56
2022-12-01T01:15:11.309Z,73.09
2022-12-01T01:17:37.966Z,73.18
2022-12-01T01:20:06.910Z,74.20
2022-12-01T01:22:35.394Z,73.23
2022-12-01T01:25:01.978Z,73.02
2022-12-01T01:27:28.556Z,73.77
2022-12-01T01:29:55.238Z,73.44
2022-12-01T01:32:21.980Z,73.76
2022-12-01T01:34:48.945Z,73.02
2022-12-01T01:37:15.610Z,73.75
2022-12-01T01:39:42.225Z,73.45
2022-12-01T01:42:13.305Z,73.80
2022-12-01T01:45:00.383Z,73.81
2022-12-01T01:47:36.944Z,73.99
2022-12-01T01:50:09.585Z,73.55
2022-12-01T01:52:43.102Z,72.86
2022-12-01T01:55:10.089Z,73.61
2022-12-01T01:57:38.000Z,74.18
2022-12-01T02:00:09.743Z,74.03
2022-12-01T02:02:44.980Z,73.52
2022-12-01T02:05:18.405Z,73.55
2022-12-01T02:07:46.835Z,73.20
2022-12-01T02:10:15.005Z,73.52
2022-12-01T02:12:52.543Z,73.77
2022-12-01T02:15:33.479Z,72.96
2022-12-01T02:18:25.892Z,73.06
2022-12-01T02:21:24.240Z,73.55
2022-12-01T02:24:10.300Z,73.53
2022-12-01T02:26:39.826Z,73.94
2022-12-01T02:29:44.334Z,73.61
2022-12-01T02:32:29.784Z,73.85
2022-12-01T02:35:04.637Z,73.40
2022-12-01T02:37:48.763Z,74.54
2022-12-01T02:40:24.910Z,74.78
2022-12-01T02:43:05.948Z,74.63
2022-12-01T02:45:56.519Z,74.28
2022-12-01T02:48:30.242Z,74.15
2022-12-01T02:51:01.207Z,73.41
2022-12-01T02:53:27.979Z,73.06
2022-12-01T02:55:57.626Z,73.35
2022-12-01T02:58:24.402Z,73.47
2022-12-01T03:01:08.146Z,73.04
2022-12-01T03:03:46.702Z,73.39
2022-12-01T03:06:44.192Z,73.54
2022-12-01T03:09:20.014Z,73.06
2022-12-01T03:12:08.953Z,73.69
2022-12-01T03:15:03.457Z,73.52
2022-12-01T03:17:56.177Z,74.02
2022-12-01T03:20:32.868Z,73.44
2022-12-01T03:23:08.682Z,73.82
2022-12-01T03:25:38.646Z,74.27
2022-12-01T03:28:24.601Z,73.38
2022-12-01T03:30:55.822Z,73.25
2022-12-01T03:33:33.426Z,74.04
2022-12-01T03:36:06.896Z,73.69
2022-12-01T03:38:36.353Z,72.61
2022-12-01T03:41:13.122Z,73.40
2022-12-01T03:43:45.070Z,73.52
2022-12-01T03:46:46.261Z,72.81
2022-12-01T03:49:15.022Z,73.35
2022-12-01T03:51:59.503Z,73.70
2022-12-01T03:54:57.446Z,73.88
2022-12-01T03:57:31.781Z,73.33
2022-12-01T03:59:58.519Z,72.75
2022-12-01T04:02:28.126Z,73.16
2022-12-01T04:04:55.025Z,73.27
2022-12-01T04:07:22.805Z,73.47
2022-12-01T04:09:50.035Z,72.75
2022-12-01T04:12:29.471Z,73.46
2022-12-01T04:15:10.079Z,73.28
2022-12-01T04:17:37.165Z,73.01
2022-12-01T04:20:06.511Z,73.35
2022-12-01T04:22:33.869Z,73.59
2022-12-01T04:25:00.560Z,72.85
2022-12-01T04:27:27.258Z,73.40
2022-12-01T04:29:53.878Z,73.74
2022-12-01T04:32:20.587Z,74.05
2022-12-01T04:34:47.320Z,73.44
2022-12-01T04:37:14.038Z,73.05
2022-12-01T04:39:42.066Z,73.64
2022-12-01T04:42:09.777Z,72.77
2022-12-01T04:44:36.814Z,72.73
2022-12-01T04:47:05.008Z,73.49
2022-12-01T04:49:33.131Z,73.62
2022-12-01T04:51:59.740Z,73.29
2022-12-01T04:54:26.840Z,72.99
2022-12-01T04:56:53.572Z,72.96
2022-12-01T04:59:20.299Z,73.48
2022-12-01T05:01:48.168Z,73.01
2022-12-01T05:04:15.552Z,73.21
2022-12-01T05:06:42.651Z,73.38
2022-12-01T05:09:17.235Z,73.79
2022-12-01T05:11:45.060Z,73.04
2022-12-01T05:14:11.835Z,73.11
2022-12-01T05:16:39.168Z,73.36
2022-12-01T05:19:24.581Z,73.61
2022-12-01T05:21:52.179Z,74.05
2022-12-01T05:24:20.368Z,73.58
2022-12-01T05:26:47.487Z,74.29
2022-12-01T05:29:14.187Z,73.09
2022-12-01T05:31:41.552Z,74.09
2022-12-01T05:34:08.936Z,73.95
2022-12-01T05:36:36.360Z,73.94
2022-12-01T05:39:04.139Z,74.02
2022-12-01T05:41:30.936Z,73.57
2022-12-01T05:43:57.622Z,73.22
2022-12-01T05:46:24.428Z,73.45
2022-12-01T05:48:51.198Z,73.05
2022-12-01T05:51:18.135Z,73.37
2022-12-01T05:53:44.888Z,73.14
2022-12-01T05:56:11.520Z,73.15
2022-12-01T05:58:38.347Z,73.33
2022-12-01T06:01:05.277Z,73.50
2022-12-01T06:03:31.964Z,72.45
2022-12-01T06:05:58.667Z,72.57
2022-12-01T06:08:25.705Z,73.27
2022-12-01T06:10:52.372Z,72.47
2022-12-01T06:13:19.149Z,72.24
2022-12-01T06:15:45.884Z,72.36
2022-12-01T06:18:12.505Z,72.37
2022-12-01T06:20:39.220Z,72.71
2022-12-01T06:23:06.024Z,72.05
2022-12-01T06:25:32.819Z,72.06
2022-12-01T06:27:59.651Z,72.45
2022-12-01T06:30:26.304Z,71.67
2022-12-01T06:32:53.019Z,71.55
2022-12-01T06:35:20.469Z,71.49
2022-12-01T06:37:47.088Z,72.08
2022-12-01T06:40:14.051Z,72.33
2022-12-01T06:42:40.708Z,71.67
2022-12-01T06:45:07.788Z,72.14
2022-12-01T06:47:34.919Z,71.86
2022-12-01T06:50:02.232Z,72.19
2022-12-01T06:52:29.044Z,71.83
2022-12-01T06:54:55.825Z,71.89
2022-12-01T06:57:22.608Z,71.16
2022-12-01T06:59:49.607Z,71.90
2022-12-01T07:02:17.309Z,71.92
2022-12-01T07:04:44.026Z,71.95
2022-12-01T07:07:12.062Z,71.66
2022-12-01T07:09:39.369Z,71.85
2022-12-01T07:12:06.629Z,71.53
2022-12-01T07:14:33.670Z,71.15
2022-12-01T07:17:00.325Z,71.23
2022-12-01T07:19:27.258Z,70.58
2022-12-01T07:21:53.859Z,70.51
2022-12-01T07:24:20.474Z,71.10
2022-12-01T07:26:48.126Z,70.11
2022-12-01T07:29:14.858Z,69.60
2022-12-01T07:31:41.562Z,69.46
2022-12-01T07:34:12.188Z,68.87
2022-12-01T07:36:38.971Z,69.74
2022-12-01T07:39:07.576Z,70.03
2022-12-01T07:41:35.474Z,69.46
2022-12-01T07:44:02.702Z,69.47
2022-12-01T07:46:29.364Z,68.61
2022-12-01T07:48:56.882Z,68.56
2022-12-01T07:51:25.235Z,68.63
2022-12-01T07:53:53.428Z,68.70
2022-12-01T07:56:21.034Z,68.25
2022-12-01T07:58:48.115Z,68.58
2022-12-01T08:01:20.877Z,68.93
2022-12-01T08:03:52.441Z,68.62
2022-12-01T08:06:20.065Z,69.16
2022-12-01T08:08:47.612Z,68.27
2022-12-01T08:11:19.767Z,67.66
2022-12-01T08:13:47.113Z,68.57
2022-12-01T08:16:15.960Z,67.83
2022-12-01T08:18:43.663Z,67.21
2022-12-01T08:21:16.215Z,67.56
2022-12-01T08:23:44.928Z,67.24
2022-12-01T08:26:15.491Z,67.37
2022-12-01T08:28:42.535Z,67.85
2022-12-01T08:31:09.331Z,67.88
2022-12-01T08:33:36.982Z,66.30
2022-12-01T08:36:05.180Z,67.10
2022-12-01T08:38:32.329Z,67.47
2022-12-01T08:41:03.902Z,66.32
2022-12-01T08:46:18.161Z,66.90
2022-12-01T08:48:44.971Z,66.28
2022-12-01T08:51:15.685Z,65.77
2022-12-01T08:53:47.057Z,66.88
2022-12-01T08:56:21.581Z,65.85
2022-12-01T08:58:51.710Z,66.33
2022-12-01T09:01:20.342Z,64.76
2022-12-01T09:03:47.238Z,65.61
2022-12-01T09:06:17.235Z,65.20
2022-12-01T09:08:44.324Z,65.50
2022-12-01T09:11:16.422Z,64.75
2022-12-01T09:13:46.788Z,64.03
2022-12-01T09:16:18.317Z,63.96
2022-12-01T09:18:47.401Z,64.05
2022-12-01T09:21:16.992Z,64.03
2022-12-01T09:23:44.089Z,64.64
2022-12-01T09:26:13.776Z,64.37
2022-12-01T09:28:40.661Z,64.38
2022-12-01T09:31:09.390Z,63.42
2022-12-01T09:33:36.682Z,63.04
2022-12-01T09:36:05.279Z,62.26
2022-12-01T09:38:33.652Z,60.85
2022-12-01T09:41:04.464Z,62.51
2022-12-01T09:43:41.160Z,62.55
2022-12-01T09:46:15.943Z,63.63
2022-12-01T09:48:45.791Z,62.67
2022-12-01T09:51:17.273Z,61.81
2022-12-01T09:53:44.935Z,62.67
2022-12-01T09:56:20.401Z,63.14
2022-12-01T09:59:01.577Z,61.78
2022-12-01T10:01:35.629Z,62.66
2022-12-01T10:04:11.700Z,62.89
2022-12-01T10:06:45.141Z,62.73
2022-12-01T10:09:27.582Z,62.02
2022-12-01T10:12:00.442Z,62.11
2022-12-01T10:14:30.026Z,62.87
2022-12-01T10:17:10.892Z,62.05
2022-12-01T10:20:02.962Z,62.08
2022-12-01T10:22:53.496Z,61.94
2022-12-01T10:25:43.359Z,62.47
2022-12-01T10:28:43.890Z,62.17
2022-12-01T10:31:29.110Z,62.09
2022-12-01T10:34:06.303Z,61.89
2022-12-01T10:36:34.690Z,61.05
2022-12-01T10:39:04.895Z,60.37
2022-12-01T10:41:35.337Z,60.50
2022-12-01T10:44:03.754Z,60.63
2022-12-01T10:46:41.343Z,59.04
2022-12-01T10:49:11.788Z,58.64
2022-12-01T10:51:55.029Z,58.86
2022-12-01T10:54:25.404Z,59.20
2022-12-01T10:56:57.050Z,57.71
2022-12-01T10:59:35.714Z,58.62
2022-12-01T11:02:05.376Z,57.07
2022-12-01T11:04:45.513Z,58.30
2022-12-01T11:07:19.160Z,56.33
2022-12-01T11:09:48.690Z,56.53
2022-12-01T11:12:17.999Z,56.40
2022-12-01T11:14:48.651Z,56.15
2022-12-01T11:17:33.125Z,55.82
2022-12-01T11:20:26.183Z,57.02
2022-12-01T11:23:13.415Z,53.34
2022-12-01T11:25:40.159Z,54.53
2022-12-01T11:28:07.251Z,55.48
2022-12-01T11:30:34.082Z,56.15
2022-12-01T11:33:03.777Z,56.47
2022-12-01T11:35:37.716Z,56.96
2022-12-01T11:38:28.672Z,57.99
2022-12-01T11:40:58.353Z,58.88
2022-12-01T11:43:33.248Z,59.28
2022-12-01T11:46:04.428Z,59.39
2022-12-01T11:48:34.522Z,59.43
2022-12-01T11:51:06.495Z,59.62
2022-12-01T11:53:41.713Z,60.21
2022-12-01T11:56:15.817Z,59.34
2022-12-01T11:58:44.245Z,59.13
2022-12-01T12:01:48.544Z,59.72
2022-12-01T12:04:48.877Z,60.16
2022-12-01T12:07:52.957Z,60.16
2022-12-01T12:10:49.761Z,60.45
2022-12-01T12:13:16.539Z,59.78
2022-12-01T12:16:11.901Z,60.42
2022-12-01T12:18:59.894Z,59.88
2022-12-01T12:21:57.191Z,60.48
2022-12-01T12:24:42.305Z,60.68
2022-12-01T12:27:33.701Z,60.38
2022-12-01T12:30:08.340Z,61.30
2022-12-01T12:33:02.558Z,61.28
2022-12-01T12:35:52.114Z,62.00
2022-12-01T12:38:46.386Z,61.54
2022-12-01T12:41:36.673Z,62.05
2022-12-01T12:44:17.315Z,61.97
2022-12-01T12:46:49.250Z,62.30
2022-12-01T12:49:49.820Z,61.89
2022-12-01T12:52:35.754Z,62.81
2022-12-01T12:55:15.166Z,62.79
2022-12-01T12:57:51.783Z,63.27
2022-12-01T13:00:25.315Z,63.03
2022-12-01T13:03:02.325Z,63.47
2022-12-01T13:05:39.789Z,63.18
2022-12-01T13:08:13.961Z,63.74
2022-12-01T13:10:49.186Z,63.50
2022-12-01T13:14:00.966Z,63.00
2022-12-01T13:16:49.140Z,62.76
2022-12-01T13:19:32.354Z,63.17
2022-12-01T13:22:01.040Z,64.39
2022-12-01T13:24:29.934Z,63.86
2022-12-01T13:27:03.094Z,64.30
2022-12-01T13:29:40.963Z,65.06
2022-12-01T13:32:30.530Z,65.16
2022-12-01T13:34:59.012Z,65.19
2022-12-01T13:37:32.386Z,64.50
2022-12-01T13:40:21.934Z,64.82
2022-12-01T13:43:10.845Z,64.96
2022-12-01T13:45:39.997Z,64.95
2022-12-01T13:48:27.115Z,65.96
2022-12-01T13:51:03.781Z,66.03
2022-12-01T13:53:37.200Z,66.08
2022-12-01T13:56:24.500Z,66.02
2022-12-01T13:58:53.997Z,65.81
2022-12-01T14:01:21.227Z,66.45
2022-12-01T14:04:23.054Z,65.98
2022-12-01T14:07:10.465Z,66.16
2022-12-01T14:09:39.389Z,66.45
2022-12-01T14:12:16.819Z,66.33
2022-12-01T14:14:54.861Z,66.95
2022-12-01T14:17:31.201Z,66.37
2022-12-01T14:20:08.364Z,66.47
2022-12-01T14:22:44.154Z,66.76
2022-12-01T14:25:19.829Z,66.91
2022-12-01T14:27:49.041Z,67.20
2022-12-01T14:30:40.932Z,67.36
2022-12-01T14:33:44.972Z,67.52
2022-12-01T14:36:23.831Z,67.40
2022-12-01T14:38:59.524Z,67.89
2022-12-01T14:41:29.165Z,68.30
2022-12-01T14:44:03.770Z,67.85
2022-12-01T14:46:54.693Z,68.03
2022-12-01T14:49:29.907Z,67.44
2022-12-01T14:52:03.964Z,67.93
2022-12-01T14:54:35.386Z,67.68
2022-12-01T14:57:06.774Z,67.98
2022-12-01T14:59:34.935Z,67.99
2022-12-01T15:02:09.636Z,68.51
2022-12-01T15:05:13.761Z,68.46
2022-12-01T15:07:46.755Z,68.45
2022-12-01T15:10:29.154Z,68.33
2022-12-01T15:12:56.540Z,68.59
2022-12-01T15:15:26.863Z,68.62
2022-12-01T15:17:55.770Z,68.50
2022-12-01T15:20:30.136Z,69.29
2022-12-01T15:22:58.626Z,68.99
2022-12-01T15:25:33.592Z,69.04
2022-12-01T15:28:24.991Z,69.00
2022-12-01T15:30:54.695Z,68.75
2022-12-01T15:33:29.023Z,69.82
2022-12-01T15:36:00.567Z,69.07
2022-12-01T15:38:37.856Z,69.67
2022-12-01T15:41:28.357Z,69.55
2022-12-01T15:43:56.033Z,70.45
2022-12-01T15:46:31.215Z,70.39
2022-12-01T15:49:24.259Z,69.86
2022-12-01T15:51:52.489Z,69.67
2022-12-01T15:54:24.278Z,69.46
2022-12-01T15:56:54.175Z,70.04
2022-12-01T15:59:27.732Z,70.35
2022-12-01T16:01:54.965Z,69.57
2022-12-01T16:04:26.117Z,70.02
2022-12-01T16:07:03.546Z,70.09
2022-12-01T16:09:35.306Z,69.45
2022-12-01T16:12:05.114Z,70.06
2022-12-01T16:14:32.346Z,70.31
2022-12-01T16:17:00.149Z,69.86
2022-12-01T16:19:30.244Z,69.91
2022-12-01T16:22:14.408Z,70.08
2022-12-01T16:24:53.970Z,70.36
2022-12-01T16:27:25.501Z,70.74
2022-12-01T16:29:59.369Z,70.92
2022-12-01T16:32:33.900Z,70.08
2022-12-01T16:35:01.106Z,70.04
2022-12-01T16:37:28.128Z,70.61
2022-12-01T16:39:54.895Z,70.66
2022-12-01T16:42:22.172Z,70.52
2022-12-01T16:44:51.177Z,70.58
2022-12-01T16:47:23.461Z,70.50
2022-12-01T16:49:51.406Z,70.75
2022-12-01T16:55:23.132Z,70.43
2022-12-01T16:57:49.685Z,70.86
2022-12-01T17:00:16.783Z,70.88
2022-12-01T17:02:43.474Z,70.38
2022-12-01T17:05:11.344Z,71.05
2022-12-01T17:07:38.267Z,71.23
2022-12-01T17:10:06.405Z,70.17
2022-12-01T17:12:33.045Z,70.64
2022-12-01T17:14:59.632Z,70.64
2022-12-01T17:17:26.245Z,70.91
2022-12-01T17:19:53.696Z,70.81
2022-12-01T17:22:20.586Z,70.87
2022-12-01T17:24:47.545Z,70.97
2022-12-01T17:27:14.410Z,70.63
2022-12-01T17:29:45.887Z,71.08
2022-12-01T17:32:14.618Z,70.34
2022-12-01T17:34:42.638Z,70.07
2022-12-01T17:37:09.263Z,70.39
2022-12-01T17:39:36.008Z,70.96
2022-12-01T17:42:02.861Z,70.68
2022-12-01T17:44:29.508Z,70.32
2022-12-01T17:46:56.284Z,71.12
2022-12-01T17:49:23.041Z,70.96
2022-12-01T17:51:50.866Z,70.80
2022-12-01T17:54:19.720Z,70.90
2022-12-01T17:56:46.484Z,71.36
2022-12-01T17:59:13.365Z,71.19
2022-12-01T18:01:44.330Z,70.99
2022-12-01T18:04:11.052Z,70.74
2022-12-01T18:06:37.893Z,71.18
2022-12-01T18:09:04.963Z,71.44
2022-12-01T18:11:34.556Z,70.81
2022-12-01T18:14:05.034Z,71.16
2022-12-01T18:16:33.016Z,71.33
2022-12-01T18:19:01.470Z,71.57
2022-12-01T18:21:28.804Z,71.01
2022-12-01T18:24:01.286Z,71.17
2022-12-01T18:26:29.963Z,70.96
2022-12-01T18:29:03.453Z,70.95
2022-12-01T18:31:30.877Z,71.60
2022-12-01T18:34:09.782Z,71.55
2022-12-01T18:36:38.236Z,70.86
2022-12-01T18:39:11.795Z,71.00
2022-12-01T18:41:39.028Z,71.25
2022-12-01T18:44:05.976Z,71.67
2022-12-01T18:46:34.022Z,71.15
2022-12-01T18:49:02.681Z,71.15
2022-12-01T18:51:31.972Z,71.23
2022-12-01T18:54:00.402Z,71.79
2022-12-01T18:56:28.040Z,70.88
2022-12-01T18:58:57.502Z,71.41
2022-12-01T19:01:31.865Z,71.21
2022-12-01T19:03:59.720Z,71.12
2022-12-01T19:06:27.916Z,71.62
2022-12-01T19:08:55.634Z,71.17
2022-12-01T19:11:22.654Z,71.69
2022-12-01T19:13:49.571Z,72.01
2022-12-01T19:16:18.443Z,71.84
2022-12-01T19:18:45.715Z,71.30
2022-12-01T19:21:14.625Z,72.01
2022-12-01T19:23:42.270Z,71.20
2022-12-01T19:26:12.623Z,71.46
2022-12-01T19:28:42.169Z,71.16
2022-12-01T19:31:11.723Z,71.61
2022-12-01T19:33:39.646Z,70.45
2022-12-01T19:36:12.264Z,70.69
2022-12-01T19:38:39.830Z,71.41
2022-12-01T19:41:07.491Z,71.61
2022-12-01T19:43:35.457Z,71.19
2022-12-01T19:46:07.521Z,71.53
2022-12-01T19:48:34.449Z,71.30
2022-12-01T19:51:01.185Z,71.32
2022-12-01T19:53:33.339Z,71.36
2022-12-01T19:56:02.577Z,71.35
2022-12-01T19:58:29.805Z,71.67
2022-12-01T20:01:03.906Z,71.70
2022-12-01T20:03:30.675Z,71.80
2022-12-01T20:06:02.285Z,71.42
2022-12-01T20:08:28.928Z,71.64
2022-12-01T20:10:55.649Z,71.41
2022-12-01T20:13:22.273Z,71.50
2022-12-01T20:15:49.178Z,71.69
2022-12-01T20:18:16.065Z,71.82
2022-12-01T20:20:42.972Z,71.03
2022-12-01T20:23:09.572Z,71.83
2022-12-01T20:25:36.549Z,70.89
2022-12-01T20:28:03.826Z,71.31
2022-12-01T20:30:30.518Z,71.79
2022-12-01T20:32:57.239Z,71.26
2022-12-01T20:35:23.926Z,71.46
2022-12-01T20:37:50.561Z,71.22
2022-12-01T20:40:17.282Z,70.69
2022-12-01T20:42:43.932Z,71.31
2022-12-01T20:45:10.964Z,70.93
2022-12-01T20:47:37.909Z,70.78
2022-12-01T20:50:05.500Z,70.88
2022-12-01T20:52:32.199Z,70.61
2022-12-01T20:54:58.982Z,70.62
2022-12-01T20:57:25.679Z,71.34
2022-12-01T20:59:52.328Z,71.08
2022-12-01T21:02:19.093Z,70.76
2022-12-01T21:04:45.804Z,71.19
2022-12-01T21:07:12.437Z,70.58
2022-12-01T21:09:39.419Z,70.63
2022-12-01T21:12:32.259Z,70.60
2022-12-01T21:15:22.024Z,70.50
2022-12-01T21:18:00.701Z,70.41
2022-12-01T21:20:39.239Z,70.38
2022-12-01T21:23:14.936Z,70.85
2022-12-01T21:25:43.195Z,70.98
2022-12-01T21:28:26.276Z,71.16
2022-12-01T21:31:01.570Z,70.94
2022-12-01T21:33:32.806Z,70.31
2022-12-01T21:36:01.886Z,71.00
2022-12-01T21:38:31.528Z,70.67
2022-12-01T21:40:58.158Z,70.22
2022-12-01T21:43:25.754Z,69.86
2022-12-01T21:45:56.837Z,69.79
2022-12-01T21:48:24.113Z,70.03
2022-12-01T21:50:59.493Z,70.04
2022-12-01T21:53:32.085Z,70.59
2022-12-01T21:55:58.706Z,70.00
2022-12-01T21:58:28.879Z,70.58
2022-12-01T22:00:58.292Z,70.58
2022-12-01T22:03:26.995Z,70.79
2022-12-01T22:06:29.321Z,70.74
2022-12-01T22:09:10.649Z,70.13
2022-12-01T22:11:37.519Z,70.80
2022-12-01T22:14:13.025Z,69.23
2022-12-01T22:16:45.198Z,70.62
2022-12-01T22:19:14.950Z,70.02
2022-12-01T22:21:46.743Z,71.00
2022-12-01T22:24:32.576Z,70.46
2022-12-01T22:27:05.316Z,70.29
2022-12-01T22:29:39.313Z,69.76
2022-12-01T22:32:11.760Z,70.61
2022-12-01T22:34:45.073Z,70.09
2022-12-01T22:37:38.409Z,70.49
2022-12-01T22:40:27.983Z,69.89
2022-12-01T22:42:54.955Z,70.35
2022-12-01T22:45:26.562Z,70.42
2022-12-01T22:48:01.942Z,70.15
2022-12-01T22:50:31.425Z,70.48
2022-12-01T22:53:14.897Z,70.04
2022-12-01T22:55:42.242Z,70.42
2022-12-01T22:58:23.691Z,70.09
2022-12-01T23:00:50.965Z,69.69
2022-12-01T23:03:18.093Z,69.93
2022-12-01T23:05:45.297Z,69.77
2022-12-01T23:08:20.069Z,69.94
2022-12-01T23:10:46.786Z,69.95
2022-12-01T23:13:24.693Z,69.12
2022-12-01T23:15:53.648Z,69.31
2022-12-01T23:18:27.963Z,70.44
2022-12-01T23:20:56.707Z,69.93
2022-12-01T23:23:32.295Z,70.32
2022-12-01T23:26:04.903Z,70.01
2022-12-01T23:28:35.458Z,70.47
2022-12-01T23:31:02.348Z,70.17
2022-12-01T23:33:31.528Z,69.80
2022-12-01T23:36:21.532Z,70.10
2022-12-01T23:38:51.730Z,70.57
2022-12-01T23:41:33.622Z,69.83
2022-12-01T23:44:04.205Z,69.97
2022-12-01T23:46:32.483Z,70.38
2022-12-01T23:49:07.162Z,70.21
2022-12-01T23:51:41.525Z,70.06
2022-12-01T23:54:16.476Z,70.31
2022-12-01T23:56:45.151Z,70.24
2022-12-01T23:59:13.435Z,70.19
